Time;durP1;ratioP1;P1;durP2;ratioP2;P2;SDS_P1;SDS_P2;PMS_P1;PMS_P2;Temp;Humidity;BMP_temperature;BMP_pressure;BME280_temperature;BME280_humidity;BME280_pressure;Samples;Min_cycle;Max_cycle;Signal;HPM_P1;HPM_P2
2022/07/01 00:02:07;;;;;;;2.50;0.70;;;;;;;23.89;57.81;100393.88;4971532;28;20229;-75
2022/07/01 00:04:33;;;;;;;2.73;1.03;;;;;;;23.87;57.46;100398.38;4975131;28;20241;-77
2022/07/01 00:06:59;;;;;;;6.13;0.80;;;;;;;23.82;57.62;100391.00;4955234;28;20284;-75
2022/07/01 00:09:24;;;;;;;2.00;1.00;;;;;;;23.82;57.33;100398.81;4947489;28;20195;-75
2022/07/01 00:11:50;;;;;;;1.63;0.80;;;;;;;23.83;57.44;100392.63;4970975;28;20483;-74
2022/07/01 00:14:15;;;;;;;2.70;0.70;;;;;;;23.87;57.43;100393.44;4974281;28;20276;-73
2022/07/01 00:16:41;;;;;;;1.60;0.80;;;;;;;23.89;57.85;100404.59;4958212;28;20612;-73
2022/07/01 00:19:06;;;;;;;2.50;0.80;;;;;;;23.90;58.18;100415.72;4959577;28;20209;-75
2022/07/01 00:21:32;;;;;;;1.60;0.80;;;;;;;23.93;57.50;100414.06;4953201;28;20301;-72
2022/07/01 00:23:57;;;;;;;1.87;0.60;;;;;;;23.93;57.53;100414.88;4958075;28;20182;-72
2022/07/01 00:26:23;;;;;;;2.50;1.17;;;;;;;23.99;57.46;100415.28;4973816;28;20650;-73
2022/07/01 00:28:48;;;;;;;1.77;0.60;;;;;;;24.06;59.01;100429.69;4973062;28;20177;-74
2022/07/01 00:31:14;;;;;;;6.40;0.83;;;;;;;24.06;59.75;100415.28;4977390;28;20614;-73
2022/07/01 00:33:39;;;;;;;7.93;1.37;;;;;;;24.04;60.03;100430.09;4968030;28;20214;-73
2022/07/01 00:36:05;;;;;;;6.57;1.07;;;;;;;24.05;60.19;100417.34;4936012;29;20214;-74
2022/07/01 00:38:30;;;;;;;3.10;1.30;;;;;;;24.06;60.06;100419.00;4951130;29;20266;-73
2022/07/01 00:40:56;;;;;;;5.50;1.10;;;;;;;23.99;59.76;100413.22;4934738;29;20194;-72
2022/07/01 00:43:24;;;;;;;3.77;1.00;;;;;;;23.95;60.23;100405.81;4969693;28;20847;-72
2022/07/01 00:45:49;;;;;;;4.33;0.80;;;;;;;23.93;60.08;100414.06;4954106;28;20182;-73
2022/07/01 00:48:15;;;;;;;5.60;1.03;;;;;;;23.94;59.41;100419.41;4969948;28;20437;-73
2022/07/01 00:50:41;;;;;;;8.50;0.90;;;;;;;23.92;59.88;100416.13;4949287;28;20190;-72
2022/07/01 00:53:06;;;;;;;4.20;1.00;;;;;;;23.92;59.41;100419.00;4966730;28;20963;-73
2022/07/01 00:55:32;;;;;;;6.37;1.63;;;;;;;23.93;59.52;100419.84;4968389;28;20504;-73
2022/07/01 00:57:57;;;;;;;3.73;0.90;;;;;;;23.91;59.26;100423.13;4950601;28;20214;-72
2022/07/01 01:00:26;;;;;;;6.57;0.93;;;;;;;23.92;59.74;100424.78;4949959;28;20761;-72
2022/07/01 01:02:51;;;;;;;2.73;0.83;;;;;;;23.91;59.17;100420.25;4935055;29;20182;-73
2022/07/01 01:05:24;;;;;;;2.70;0.83;;;;;;;23.92;59.69;100424.78;4950054;29;20431;-72
2022/07/01 01:07:50;;;;;;;3.00;0.90;;;;;;;23.91;59.16;100420.25;4960149;28;20183;-73
2022/07/01 01:10:16;;;;;;;2.70;1.00;;;;;;;23.91;59.00;100425.19;4952938;28;20422;-72
2022/07/01 01:12:42;;;;;;;10.83;1.27;;;;;;;23.90;58.67;100435.91;4966455;28;20389;-73
2022/07/01 01:15:07;;;;;;;2.57;0.93;;;;;;;23.90;59.27;100433.03;4951764;28;20498;-73
2022/07/01 01:17:33;;;;;;;2.83;1.00;;;;;;;23.91;58.97;100428.06;4966444;28;20189;-72
2022/07/01 01:19:58;;;;;;;3.10;1.13;;;;;;;23.90;59.02;100430.16;4953516;28;20179;-72
2022/07/01 01:22:24;;;;;;;3.03;0.97;;;;;;;23.91;59.09;100425.19;4970984;28;20186;-72
2022/07/01 01:24:49;;;;;;;1.70;0.90;;;;;;;23.90;58.83;100426.44;4969013;28;20179;-73
2022/07/01 01:27:16;;;;;;;4.07;0.80;;;;;;;23.87;58.58;100428.06;4962618;28;20534;-73
2022/07/01 01:29:41;;;;;;;2.00;0.80;;;;;;;23.86;58.63;100420.66;4990400;28;20174;-73
2022/07/01 01:32:07;;;;;;;4.73;1.13;;;;;;;23.86;58.74;100420.66;4990558;28;20896;-73
2022/07/01 01:34:36;;;;;;;2.53;1.17;;;;;;;23.86;58.68;100412.00;4989924;28;20228;-72
2022/07/01 01:37:02;;;;;;;3.50;1.00;;;;;;;23.87;58.86;100404.97;4983069;28;20170;-72
2022/07/01 01:39:28;;;;;;;2.13;0.77;;;;;;;23.87;59.33;100407.03;4954330;28;20901;-72
2022/07/01 01:41:53;;;;;;;2.50;0.80;;;;;;;23.87;58.76;100398.38;4955188;28;20426;-72
2022/07/01 01:44:19;;;;;;;2.13;0.90;;;;;;;23.87;59.04;100398.38;4971770;28;20217;-72
2022/07/01 01:46:44;;;;;;;2.53;1.00;;;;;;;23.85;58.49;100406.63;4986966;28;20190;-72
2022/07/01 01:49:10;;;;;;;3.10;0.87;;;;;;;23.82;58.54;100408.28;4954599;28;20174;-72
2022/07/01 01:51:36;;;;;;;2.80;0.87;;;;;;;23.79;58.42;100420.63;4971971;28;20174;-73
2022/07/01 01:54:01;;;;;;;2.10;1.20;;;;;;;23.75;57.51;100414.06;4954621;28;20313;-73
2022/07/01 01:56:27;;;;;;;3.40;0.80;;;;;;;23.76;57.97;100417.75;4970624;28;20185;-72
2022/07/01 01:58:52;;;;;;;4.97;0.90;;;;;;;23.75;58.00;100416.97;4953794;28;20210;-72
2022/07/01 02:01:18;;;;;;;4.70;1.23;;;;;;;23.73;57.15;100427.25;4970281;28;20170;-73
2022/07/01 02:03:44;;;;;;;4.93;1.00;;;;;;;23.69;57.71;100435.88;4969020;28;20302;-72
2022/07/01 02:06:10;;;;;;;2.57;1.07;;;;;;;23.65;56.97;100429.31;4952776;28;20462;-73
2022/07/01 02:08:37;;;;;;;2.10;0.93;;;;;;;23.64;57.28;100415.31;4968445;28;20707;-73
2022/07/01 02:11:03;;;;;;;2.73;0.70;;;;;;;23.66;57.49;100407.91;4968642;28;20879;-73
2022/07/01 02:13:28;;;;;;;2.90;0.90;;;;;;;23.66;56.78;100428.09;4951827;28;20431;-72
2022/07/01 02:15:53;;;;;;;1.87;0.80;;;;;;;23.60;56.58;100447.03;4969649;28;20265;-73
2022/07/01 02:18:19;;;;;;;2.27;0.90;;;;;;;23.56;56.67;100446.19;4981482;28;20190;-72
2022/07/01 02:20:44;;;;;;;3.97;0.90;;;;;;;23.50;56.63;100436.31;4985062;28;20182;-72
2022/07/01 02:23:10;;;;;;;5.37;1.00;;;;;;;23.49;56.83;100422.31;4988517;28;20693;-73
2022/07/01 02:25:35;;;;;;;2.20;0.70;;;;;;;23.56;57.19;100414.50;4988290;28;20181;-73
2022/07/01 02:28:01;;;;;;;2.70;1.03;;;;;;;23.54;56.58;100414.06;4971741;28;20174;-73
2022/07/01 02:30:27;;;;;;;5.70;0.90;;;;;;;23.52;56.57;100419.44;4967346;28;20189;-72
2022/07/01 02:32:52;;;;;;;2.60;0.90;;;;;;;23.55;57.03;100415.75;4950482;28;20180;-72
2022/07/01 02:35:18;;;;;;;5.10;0.90;;;;;;;23.52;56.63;100418.59;4950802;29;20167;-72
2022/07/01 02:37:43;;;;;;;3.73;0.70;;;;;;;23.43;56.86;100432.63;4950413;29;20179;-73
2022/07/01 02:40:09;;;;;;;4.20;0.70;;;;;;;23.37;56.91;100432.19;4950842;29;20164;-73
2022/07/01 02:42:35;;;;;;;1.50;0.70;;;;;;;23.43;56.70;100444.16;4962446;28;20601;-72
2022/07/01 02:45:04;;;;;;;3.60;0.80;;;;;;;23.44;56.81;100440.03;4953508;28;20178;-72
2022/07/01 02:47:40;;;;;;;5.30;1.20;;;;;;;23.48;56.68;100435.91;4953677;28;20186;-72
2022/07/01 02:50:09;;;;;;;2.27;1.07;;;;;;;23.52;56.89;100422.31;4970435;28;20416;-72
2022/07/01 02:52:38;;;;;;;2.23;0.87;;;;;;;23.54;56.74;100419.03;4940095;28;20426;-72
2022/07/01 02:55:08;;;;;;;2.10;1.23;;;;;;;23.52;56.93;100422.31;4954266;28;20471;-73
2022/07/01 02:57:33;;;;;;;1.50;0.70;;;;;;;23.52;56.29;100421.47;4953435;28;20426;-73
2022/07/01 02:59:59;;;;;;;3.07;0.83;;;;;;;23.53;56.59;100417.38;4953275;28;20943;-73
2022/07/01 03:02:24;;;;;;;2.37;0.70;;;;;;;23.54;56.80;100414.06;4953018;28;20183;-73
2022/07/01 03:04:51;;;;;;;2.43;0.73;;;;;;;23.55;56.93;100415.75;4953474;28;20753;-73
2022/07/01 03:07:16;;;;;;;3.30;0.70;;;;;;;23.55;56.80;100429.31;4945327;28;20231;-72
2022/07/01 03:09:43;;;;;;;2.37;0.80;;;;;;;23.56;56.84;100437.56;4962493;28;20439;-73
2022/07/01 03:12:34;;;;;;;1.90;0.70;;;;;;;23.55;56.49;100441.69;4988574;28;20174;-72
2022/07/01 03:15:01;;;;;;;3.60;0.90;;;;;;;23.55;56.79;100444.56;4956155;28;20486;-73
2022/07/01 03:17:29;;;;;;;7.93;1.10;;;;;;;23.54;57.17;100440.00;4969294;28;20417;-72
2022/07/01 03:19:55;;;;;;;2.27;0.80;;;;;;;23.55;56.89;100438.78;4951697;28;21271;-72
2022/07/01 03:22:21;;;;;;;4.33;1.00;;;;;;;23.53;56.95;100446.22;4968390;28;20471;-73
2022/07/01 03:24:48;;;;;;;2.80;0.70;;;;;;;23.50;56.91;100461.44;4970121;28;20680;-72
2022/07/01 03:27:14;;;;;;;2.60;0.70;;;;;;;23.49;56.40;100462.66;4980812;28;20471;-72
2022/07/01 03:29:39;;;;;;;2.43;1.00;;;;;;;23.45;56.57;100477.09;4990611;28;20445;-73
2022/07/01 03:32:05;;;;;;;1.50;0.70;;;;;;;23.41;56.59;100470.50;4959427;28;20188;-73
2022/07/01 03:34:31;;;;;;;3.57;0.90;;;;;;;23.36;56.74;100468.00;4957278;28;20638;-72
2022/07/01 03:36:56;;;;;;;3.20;0.77;;;;;;;23.33;56.70;100477.47;4974264;28;20477;-72
2022/07/01 03:39:21;;;;;;;4.67;1.10;;;;;;;23.29;56.47;100476.63;4973399;28;20233;-72
2022/07/01 03:41:47;;;;;;;2.63;1.00;;;;;;;23.30;56.70;100480.34;4956956;28;20194;-73
2022/07/01 03:44:12;;;;;;;3.50;0.83;;;;;;;23.26;56.57;100500.50;4956911;28;20248;-72
2022/07/01 03:46:38;;;;;;;3.90;1.00;;;;;;;23.27;56.83;100502.16;4957671;28;20178;-72
2022/07/01 03:49:04;;;;;;;6.20;0.97;;;;;;;23.32;56.87;100515.31;4955533;28;20175;-73
2022/07/01 03:51:29;;;;;;;2.37;0.90;;;;;;;23.36;56.64;100519.88;4972785;28;20174;-72
2022/07/01 03:56:39;;;;;;;3.53;1.20;;;;;;;23.36;57.08;100525.63;4957955;28;20205;-72
2022/07/01 03:59:04;;;;;;;6.90;1.10;;;;;;;23.35;56.67;100529.75;4971082;28;20453;-73
2022/07/01 04:01:30;;;;;;;3.80;0.97;;;;;;;23.35;56.84;100521.13;4954839;28;20533;-72
2022/07/01 04:03:55;;;;;;;2.33;0.67;;;;;;;23.28;57.04;100526.84;4971918;28;20273;-72
2022/07/01 04:06:20;;;;;;;1.80;0.63;;;;;;;23.26;57.16;100534.25;4956130;28;20694;-72
2022/07/01 04:08:46;;;;;;;3.47;0.90;;;;;;;23.25;57.42;100527.69;4972216;28;20273;-73
2022/07/01 04:11:12;;;;;;;1.83;0.80;;;;;;;23.24;57.14;100530.97;4956286;28;20187;-72
2022/07/01 04:13:37;;;;;;;2.03;0.87;;;;;;;23.20;57.12;100525.19;4970910;28;20256;-73
2022/07/01 04:16:03;;;;;;;2.70;0.80;;;;;;;23.05;57.45;100514.84;4954077;28;20178;-73
2022/07/01 04:18:29;;;;;;;3.10;0.90;;;;;;;23.03;57.55;100523.03;4970485;28;20301;-72
2022/07/01 04:23:38;;;;;;;4.00;0.93;;;;;;;23.06;57.12;100510.72;4972464;28;20177;-72
2022/07/01 04:26:04;;;;;;;4.03;0.93;;;;;;;23.08;57.00;100511.13;4970503;28;20421;-72
2022/07/01 04:28:29;;;;;;;3.20;0.80;;;;;;;23.14;56.77;100518.13;4976911;28;20643;-72
2022/07/01 04:30:55;;;;;;;4.10;0.80;;;;;;;23.19;57.23;100525.59;4975331;28;20201;-73
2022/07/01 04:33:20;;;;;;;2.23;0.97;;;;;;;23.24;56.68;100528.88;4972422;28;20190;-72
2022/07/01 04:35:45;;;;;;;3.30;0.70;;;;;;;23.26;57.13;100526.44;4971279;28;20732;-72
2022/07/01 04:38:11;;;;;;;4.33;0.90;;;;;;;23.28;56.99;100517.41;4956493;28;20202;-72
2022/07/01 04:40:36;;;;;;;5.10;0.70;;;;;;;23.27;57.32;100519.44;4987594;28;20186;-72
2022/07/01 04:43:02;;;;;;;2.80;0.80;;;;;;;23.28;57.46;100520.28;4971992;28;20194;-72
2022/07/01 04:45:27;;;;;;;4.50;1.00;;;;;;;23.27;57.28;100509.97;4955923;28;20185;-72
2022/07/01 04:47:53;;;;;;;4.70;0.80;;;;;;;23.31;57.84;100497.22;4939824;28;20186;-73
2022/07/01 04:50:18;;;;;;;3.73;0.73;;;;;;;23.30;57.60;100471.69;4972950;28;20167;-73
2022/07/01 04:52:43;;;;;;;3.23;0.73;;;;;;;23.29;57.40;100488.16;4958206;28;20183;-72
2022/07/01 04:55:09;;;;;;;2.53;0.77;;;;;;;23.32;57.98;100493.09;4952656;29;20230;-72
2022/07/01 04:57:34;;;;;;;6.90;1.00;;;;;;;23.35;57.91;100508.75;4968472;28;20179;-72
2022/07/01 05:00:00;;;;;;;2.00;0.80;;;;;;;23.33;57.68;100517.81;4967833;28;20657;-72
2022/07/01 05:02:25;;;;;;;5.07;0.87;;;;;;;23.33;57.69;100523.56;4936450;28;20191;-72
2022/07/01 05:04:51;;;;;;;3.17;0.80;;;;;;;23.33;57.60;100519.88;4970776;28;20822;-72
2022/07/01 05:07:28;;;;;;;1.60;0.70;;;;;;;23.30;57.71;100521.50;4955663;28;20222;-73
2022/07/01 05:09:55;;;;;;;3.30;0.80;;;;;;;23.31;57.72;100517.41;4973798;28;20209;-72
2022/07/01 05:12:20;;;;;;;7.37;0.90;;;;;;;23.29;57.88;100505.44;4955355;28;20433;-72
2022/07/01 05:14:46;;;;;;;3.93;0.90;;;;;;;23.22;58.16;100514.06;4987531;28;20428;-72
2022/07/01 05:17:11;;;;;;;3.40;1.00;;;;;;;23.17;57.95;100510.72;4955666;28;20182;-72
2022/07/01 05:22:20;;;;;;;1.93;0.70;;;;;;;23.12;57.93;100526.38;4971663;28;20192;-73
2022/07/01 05:24:46;;;;;;;7.73;1.00;;;;;;;23.13;57.89;100512.78;4972869;28;20421;-73
2022/07/01 05:27:11;;;;;;;3.00;0.83;;;;;;;23.02;58.18;100507.00;4979774;28;20256;-72
2022/07/01 05:29:37;;;;;;;5.07;1.30;;;;;;;23.10;58.02;100519.34;4989486;28;20176;-72
2022/07/01 05:32:02;;;;;;;1.60;0.60;;;;;;;23.11;57.99;100523.88;4971055;28;20190;-72
2022/07/01 05:34:28;;;;;;;4.00;0.70;;;;;;;23.04;57.83;100526.75;4969316;28;20178;-72
2022/07/01 05:36:53;;;;;;;4.90;0.80;;;;;;;23.03;58.51;100536.63;4952474;28;20185;-72
2022/07/01 05:39:19;;;;;;;4.60;0.70;;;;;;;23.04;58.36;100527.59;4969329;28;20703;-73
2022/07/01 05:41:45;;;;;;;2.47;0.70;;;;;;;22.92;58.83;100530.81;4969785;28;20182;-72
2022/07/01 05:44:10;;;;;;;1.80;0.57;;;;;;;23.02;58.13;100535.78;4969253;28;20186;-73
2022/07/01 05:46:36;;;;;;;2.10;0.70;;;;;;;23.09;57.87;100529.25;4971372;28;20422;-73
2022/07/01 05:49:01;;;;;;;2.53;0.90;;;;;;;23.08;57.96;100531.28;4969695;28;20162;-72
2022/07/01 05:51:27;;;;;;;3.47;0.90;;;;;;;23.04;57.50;100530.47;4971880;28;20175;-72
2022/07/01 05:53:52;;;;;;;6.87;1.27;;;;;;;23.05;58.02;100534.16;4970627;28;20237;-72
2022/07/01 05:56:18;;;;;;;2.70;0.60;;;;;;;23.10;57.64;100525.94;4954791;28;20550;-72
2022/07/01 05:58:43;;;;;;;2.80;0.67;;;;;;;23.07;57.57;100532.53;4954527;28;20689;-72
2022/07/01 06:01:09;;;;;;;3.40;0.90;;;;;;;23.01;57.49;100542.78;4970583;28;20171;-72
2022/07/01 06:03:34;;;;;;;1.60;0.80;;;;;;;23.02;57.35;100544.44;4954408;28;20202;-72
2022/07/01 06:06:00;;;;;;;2.17;0.90;;;;;;;23.03;57.45;100551.84;4954266;28;20285;-73
2022/07/01 06:08:34;;;;;;;1.80;0.67;;;;;;;23.03;57.21;100557.59;5108563;27;20902;-63
2022/07/01 06:10:59;;;;;;;2.57;0.73;;;;;;;22.99;56.98;100559.66;5108884;28;20430;-63
2022/07/01 06:13:25;;;;;;;2.50;0.57;;;;;;;22.98;57.15;100557.97;5108339;28;20177;-63
2022/07/01 06:15:51;;;;;;;1.80;0.60;;;;;;;23.00;57.14;100555.53;5108646;28;20188;-63
2022/07/01 06:18:16;;;;;;;2.90;0.80;;;;;;;22.93;57.54;100548.94;5108311;28;20166;-63
2022/07/01 06:20:42;;;;;;;7.20;1.10;;;;;;;22.70;58.04;100562.78;5108463;28;20178;-64
2022/07/01 06:23:07;;;;;;;3.23;0.90;;;;;;;22.65;58.33;100558.25;5108548;28;20196;-63
2022/07/01 06:25:32;;;;;;;2.40;0.83;;;;;;;22.72;57.65;100555.41;5107475;28;20629;-63
2022/07/01 06:27:58;;;;;;;3.40;0.90;;;;;;;22.62;57.92;100556.16;5094589;28;20194;-63
2022/07/01 06:30:24;;;;;;;4.53;1.10;;;;;;;22.70;57.83;100569.38;5088752;28;20467;-63
2022/07/01 06:32:49;;;;;;;2.47;0.83;;;;;;;22.84;57.40;100563.69;5088482;28;20519;-63
2022/07/01 06:35:15;;;;;;;2.00;1.00;;;;;;;22.92;57.21;100579.75;5087679;28;20173;-63
2022/07/01 06:37:40;;;;;;;3.07;0.70;;;;;;;22.96;57.26;100576.91;5087503;28;20175;-63
2022/07/01 06:40:06;;;;;;;3.67;0.80;;;;;;;23.02;57.04;100579.00;5087638;28;20182;-63
2022/07/01 06:42:32;;;;;;;2.00;0.80;;;;;;;23.00;56.81;100581.47;5098809;28;20188;-63
2022/07/01 06:44:57;;;;;;;2.70;0.90;;;;;;;23.00;56.84;100583.50;5108134;28;20523;-63
2022/07/01 06:47:23;;;;;;;4.43;1.30;;;;;;;23.00;57.13;100578.59;5107597;28;20198;-63
2022/07/01 06:49:48;;;;;;;3.10;1.20;;;;;;;22.98;56.97;100581.03;5106243;28;20178;-63
2022/07/01 06:52:14;;;;;;;6.20;1.00;;;;;;;23.01;57.03;100583.09;5105951;28;20193;-63
2022/07/01 06:54:39;;;;;;;3.53;1.30;;;;;;;23.00;56.78;100575.69;5103570;28;20206;-63
2022/07/01 06:57:05;;;;;;;1.90;0.90;;;;;;;23.00;57.06;100571.97;5106378;28;20170;-63
2022/07/01 06:59:31;;;;;;;2.30;1.00;;;;;;;22.99;56.55;100576.94;5106882;28;20169;-63
2022/07/01 07:01:56;;;;;;;1.60;0.90;;;;;;;22.99;56.92;100571.19;5104204;28;20210;-63
2022/07/01 07:04:22;;;;;;;2.83;1.20;;;;;;;22.99;56.83;100573.22;5106153;28;20180;-63
2022/07/01 07:06:47;;;;;;;2.50;1.20;;;;;;;23.00;57.10;100571.97;5107540;28;20230;-63
2022/07/01 07:09:12;;;;;;;2.10;1.10;;;;;;;23.01;56.89;100565.00;5107570;28;20627;-63
2022/07/01 07:11:38;;;;;;;2.63;1.30;;;;;;;23.03;56.67;100548.94;5104680;28;20559;-63
2022/07/01 07:14:03;;;;;;;2.53;1.30;;;;;;;23.05;57.44;100539.91;5087524;28;20685;-64
2022/07/01 07:16:29;;;;;;;5.13;1.63;;;;;;;23.08;56.91;100510.31;5087215;28;20174;-64
2022/07/01 07:18:54;;;;;;;2.83;1.20;;;;;;;23.10;57.12;100528.00;5079051;28;20195;-63
2022/07/01 07:21:20;;;;;;;2.73;1.20;;;;;;;23.09;57.02;100563.81;5069859;28;20920;-63
2022/07/01 07:23:45;;;;;;;1.50;0.83;;;;;;;23.03;57.15;100572.00;5073491;28;20229;-63
2022/07/01 07:26:11;;;;;;;2.53;1.13;;;;;;;23.03;57.27;100569.13;5073356;28;20167;-64
2022/07/01 07:28:36;;;;;;;3.73;1.20;;;;;;;23.05;57.44;100575.31;5093648;28;20203;-63
2022/07/01 07:31:02;;;;;;;2.73;1.20;;;;;;;23.05;57.35;100586.84;5093758;28;20276;-63
2022/07/01 07:33:27;;;;;;;5.43;1.03;;;;;;;23.06;57.20;100585.59;5093551;28;20192;-63
2022/07/01 07:35:52;;;;;;;1.70;1.10;;;;;;;23.07;57.73;100574.88;5093180;28;20178;-63
2022/07/01 07:38:18;;;;;;;3.10;1.10;;;;;;;23.08;57.22;100586.00;5093361;28;20625;-63
2022/07/01 07:40:43;;;;;;;1.93;0.93;;;;;;;23.05;57.36;100586.84;5091675;28;20174;-63
2022/07/01 07:43:09;;;;;;;8.33;2.77;;;;;;;23.02;56.99;100579.00;5092934;28;20182;-63
2022/07/01 07:45:35;;;;;;;4.70;2.73;;;;;;;23.01;56.96;100585.97;5093408;28;20190;-63
2022/07/01 07:48:01;;;;;;;3.27;1.70;;;;;;;23.00;57.50;100578.59;5093355;28;20685;-63
2022/07/01 07:50:27;;;;;;;4.30;1.60;;;;;;;22.99;57.07;100579.81;5093472;28;20970;-63
2022/07/01 07:52:52;;;;;;;2.90;1.50;;;;;;;23.01;57.19;100588.88;5093123;28;20419;-63
2022/07/01 07:55:18;;;;;;;2.63;1.40;;;;;;;22.99;57.30;100593.38;5093178;28;20182;-63
2022/07/01 07:57:43;;;;;;;2.77;1.70;;;;;;;22.95;56.68;100616.41;5093053;28;20178;-63
2022/07/01 08:00:10;;;;;;;3.90;1.67;;;;;;;22.93;57.23;100618.84;5093206;28;20182;-63
2022/07/01 08:02:35;;;;;;;4.60;1.97;;;;;;;22.88;57.24;100604.84;5093196;28;20171;-63
2022/07/01 08:05:01;;;;;;;2.80;1.37;;;;;;;22.94;57.29;100611.88;5088104;28;20424;-62
2022/07/01 08:07:26;;;;;;;4.00;1.33;;;;;;;23.01;57.11;100606.16;5091445;28;20272;-63
2022/07/01 08:09:52;;;;;;;6.83;1.80;;;;;;;23.01;57.07;100600.38;5091276;28;20637;-63
2022/07/01 08:12:17;;;;;;;6.80;2.87;;;;;;;23.16;60.20;100610.75;5086684;28;20189;-63
2022/07/01 08:14:43;;;;;;;5.50;2.13;;;;;;;23.16;58.11;100619.38;5089720;28;20182;-63
2022/07/01 08:17:08;;;;;;;3.20;1.70;;;;;;;23.16;57.92;100622.25;5090680;28;20235;-64
2022/07/01 08:19:34;;;;;;;2.60;1.30;;;;;;;23.05;56.97;100621.41;5088822;28;20174;-63
2022/07/01 08:21:59;;;;;;;4.80;1.37;;;;;;;23.14;57.09;100627.59;5089997;28;20182;-63
2022/07/01 08:24:25;;;;;;;6.27;1.77;;;;;;;23.10;57.22;100644.06;5089260;28;20174;-63
2022/07/01 08:26:50;;;;;;;3.17;1.30;;;;;;;23.05;56.66;100638.69;5089950;28;20195;-63
2022/07/01 08:29:16;;;;;;;3.07;1.43;;;;;;;22.92;56.99;100643.13;5089340;28;20216;-63
2022/07/01 08:31:41;;;;;;;3.03;1.20;;;;;;;23.02;56.35;100647.31;5089781;28;20194;-63
2022/07/01 08:34:06;;;;;;;3.60;1.00;;;;;;;23.03;55.93;100646.88;5091049;28;20178;-63
2022/07/01 08:36:32;;;;;;;4.00;1.60;;;;;;;22.78;56.83;100650.84;5089449;28;20190;-63
2022/07/01 08:38:58;;;;;;;2.83;1.40;;;;;;;22.94;57.18;100654.25;5089561;28;20178;-63
2022/07/01 08:41:23;;;;;;;3.70;1.40;;;;;;;22.95;56.28;100650.97;5089666;28;20182;-63
2022/07/01 08:43:49;;;;;;;3.60;1.40;;;;;;;23.03;56.61;100648.94;5090199;28;20585;-62
2022/07/01 08:46:14;;;;;;;7.03;1.40;;;;;;;23.07;55.71;100656.38;5088554;28;20195;-63
2022/07/01 08:48:43;;;;;;;5.13;1.80;;;;;;;23.13;55.92;100656.81;5090469;28;20171;-63
2022/07/01 08:51:09;;;;;;;2.23;1.07;;;;;;;23.11;55.80;100660.09;5090292;28;20178;-63
2022/07/01 08:53:35;;;;;;;2.50;1.13;;;;;;;23.20;57.17;100654.00;5089566;28;20419;-63
2022/07/01 08:58:47;;;;;;;2.03;1.10;;;;;;;23.10;56.71;100652.69;5089373;28;20451;-63
2022/07/01 09:01:17;;;;;;;3.93;1.23;;;;;;;23.03;56.27;100648.94;5085799;28;20424;-63
2022/07/01 09:03:45;;;;;;;2.70;1.10;;;;;;;23.07;55.56;100655.53;5087114;28;20431;-63
2022/07/01 09:06:16;;;;;;;2.97;1.27;;;;;;;22.97;56.39;100647.69;5086972;28;20495;-63
2022/07/01 09:08:42;;;;;;;3.50;0.90;;;;;;;23.10;56.26;100649.81;5086644;28;20443;-63
2022/07/01 09:11:19;;;;;;;5.30;1.40;;;;;;;23.11;56.13;100636.22;5086661;28;20427;-63
2022/07/01 09:13:44;;;;;;;3.60;1.57;;;;;;;23.13;56.83;100637.47;5066767;28;20499;-63
2022/07/01 09:16:14;;;;;;;2.87;1.23;;;;;;;23.14;56.47;100638.31;5086051;28;20460;-63
2022/07/01 09:18:39;;;;;;;2.10;1.00;;;;;;;23.27;56.27;100651.13;5087915;28;20253;-63
2022/07/01 09:21:08;;;;;;;4.23;1.30;;;;;;;23.34;56.07;100642.53;5088448;28;20489;-63
2022/07/01 09:23:34;;;;;;;2.17;1.07;;;;;;;23.37;56.26;100645.44;5088335;28;20208;-63
2022/07/01 09:25:59;;;;;;;3.60;1.30;;;;;;;23.45;56.13;100641.34;5090339;28;20899;-63
2022/07/01 09:28:26;;;;;;;2.50;1.03;;;;;;;22.24;58.58;100650.81;5088645;28;20247;-63
2022/07/01 09:30:53;;;;;;;4.23;1.10;;;;;;;21.91;59.64;100651.72;5086378;28;20210;-63
2022/07/01 09:33:20;;;;;;;3.33;0.93;;;;;;;22.03;58.80;100653.50;5087926;28;20416;-63
2022/07/01 09:35:48;;;;;;;3.07;0.80;;;;;;;21.95;58.79;100660.38;5086687;28;20436;-63
2022/07/01 09:38:14;;;;;;;3.60;1.10;;;;;;;21.76;60.45;100654.84;5086824;28;20456;-63
2022/07/01 09:40:47;;;;;;;5.37;1.27;;;;;;;22.14;59.04;100638.00;5086742;28;20485;-63
2022/07/01 09:43:20;;;;;;;2.70;1.03;;;;;;;22.06;60.11;100642.03;5086891;28;20432;-63
2022/07/01 09:45:53;;;;;;;2.10;1.13;;;;;;;22.11;60.67;100653.16;5087131;28;20420;-63
2022/07/01 09:48:19;;;;;;;3.27;0.80;;;;;;;21.52;61.27;100646.75;5087642;28;20451;-64
2022/07/01 09:50:45;;;;;;;2.97;1.10;;;;;;;21.96;60.21;100642.75;5088454;28;20425;-63
2022/07/01 09:53:10;;;;;;;1.90;1.00;;;;;;;22.19;58.76;100652.00;5089241;28;20178;-63
2022/07/01 09:55:36;;;;;;;2.60;0.97;;;;;;;22.28;58.17;100643.03;5089000;28;20174;-63
2022/07/01 09:58:02;;;;;;;2.27;0.80;;;;;;;21.93;59.06;100643.53;5088512;28;20559;-63
2022/07/01 10:00:29;;;;;;;2.63;1.13;;;;;;;22.10;58.25;100640.00;5088099;28;20629;-64
2022/07/01 10:02:55;;;;;;;2.10;0.90;;;;;;;21.86;57.90;100639.75;5087331;28;20183;-64
2022/07/01 10:05:20;;;;;;;2.73;1.00;;;;;;;21.98;58.57;100648.91;5087084;28;20463;-63
2022/07/01 10:07:55;;;;;;;3.10;1.30;;;;;;;21.42;60.21;100645.41;5087176;28;20315;-64
2022/07/01 10:10:36;;;;;;;2.03;0.93;;;;;;;22.20;58.29;100642.16;5085305;28;20173;-63
2022/07/01 10:13:02;;;;;;;2.23;1.00;;;;;;;22.46;57.72;100644.03;5087663;28;20427;-63
2022/07/01 10:15:28;;;;;;;2.23;1.13;;;;;;;22.16;56.20;100643.31;5085579;28;20432;-63
2022/07/01 10:17:53;;;;;;;1.90;1.00;;;;;;;22.28;57.25;100645.91;5086948;28;20834;-63
2022/07/01 10:20:23;;;;;;;16.20;1.70;;;;;;;22.22;56.24;100645.44;5088731;28;20178;-62
2022/07/01 10:22:48;;;;;;;64.70;4.97;;;;;;;21.92;57.79;100643.94;5090195;28;20634;-62
2022/07/01 10:25:52;;;;;;;24.93;2.90;;;;;;;22.07;58.37;100640.78;5090253;28;20421;-62
2022/07/01 10:28:24;;;;;;;52.43;3.33;;;;;;;22.50;55.89;100644.88;5047986;28;20945;-62
2022/07/01 10:31:08;;;;;;;29.87;2.80;;;;;;;22.56;56.60;100637.53;5085622;28;20459;-62
2022/07/01 10:33:41;;;;;;;16.40;2.20;;;;;;;22.73;55.76;100642.59;5088857;28;20431;-62
2022/07/01 10:36:21;;;;;;;11.90;1.80;;;;;;;22.90;56.15;100641.88;5090211;28;20524;-63
2022/07/01 10:39:13;;;;;;;15.57;1.60;;;;;;;22.92;55.42;100653.81;5090684;28;20918;-63
2022/07/01 10:41:56;;;;;;;29.50;2.03;;;;;;;22.79;55.92;100647.56;5089936;28;20432;-62
2022/07/01 10:44:23;;;;;;;4.27;1.17;;;;;;;22.46;54.38;100655.53;5089789;28;20426;-62
2022/07/01 10:46:58;;;;;;;13.87;1.83;;;;;;;22.72;55.69;100649.59;5088482;28;20455;-62
2022/07/01 10:49:35;;;;;;;8.17;1.67;;;;;;;22.77;55.53;100652.09;5088983;28;20416;-62
2022/07/01 10:52:01;;;;;;;5.33;1.13;;;;;;;22.82;55.36;100657.47;5088387;28;20459;-62
2022/07/01 10:54:36;;;;;;;8.30;1.50;;;;;;;22.83;54.97;100653.34;5072581;28;20458;-63
2022/07/01 10:57:19;;;;;;;5.23;1.57;;;;;;;22.80;54.87;100657.03;5091766;28;20607;-63
2022/07/01 10:59:53;;;;;;;13.87;1.80;;;;;;;22.80;55.21;100665.66;5092567;28;20831;-62
2022/07/01 11:02:26;;;;;;;2.23;0.93;;;;;;;22.79;54.82;100664.84;5094256;28;20427;-62
2022/07/01 11:04:59;;;;;;;6.50;1.40;;;;;;;22.85;55.36;100651.72;5093892;28;20495;-62
2022/07/01 11:07:26;;;;;;;4.07;1.00;;;;;;;22.92;54.58;100657.50;5093450;28;20832;-62
2022/07/01 11:09:51;;;;;;;3.07;1.00;;;;;;;22.97;55.12;100657.13;5093594;28;20526;-62
2022/07/01 11:12:17;;;;;;;3.80;1.10;;;;;;;23.02;54.65;100656.75;5094474;28;20512;-62
2022/07/01 11:14:42;;;;;;;1.97;1.03;;;;;;;23.04;54.89;100662.13;5094315;28;20178;-62
2022/07/01 11:17:30;;;;;;;4.53;1.27;;;;;;;23.04;55.03;100665.00;5093518;28;20186;-63
2022/07/01 11:19:57;;;;;;;3.30;1.00;;;;;;;23.00;54.94;100658.38;5093398;28;20907;-62
2022/07/01 11:22:25;;;;;;;5.77;1.30;;;;;;;23.00;55.18;100664.13;5092458;28;20463;-63
2022/07/01 11:24:59;;;;;;;3.07;1.10;;;;;;;23.01;55.24;100668.66;5092299;28;20420;-63
2022/07/01 11:27:25;;;;;;;4.40;1.10;;;;;;;22.99;54.89;100669.09;5092019;28;20524;-63
2022/07/01 11:29:54;;;;;;;3.93;1.00;;;;;;;22.89;55.17;100669.84;5093910;28;20527;-63
2022/07/01 11:32:26;;;;;;;2.83;1.10;;;;;;;22.94;55.36;100665.75;5093128;28;20890;-63
2022/07/01 11:34:52;;;;;;;3.70;0.90;;;;;;;22.97;55.56;100665.78;5093536;28;21274;-63